Mc Cutchenville, Ohio
Current Conditions -  °F | °C
As of 7:53 AM on Thursday 27 Nov 2014 (Local Time) from KFDY Reporting Station
Overcast Overcast  
Wind Chill: 22°   Ceiling: 5000
Heat Index: 30°   Visibility: 8mi
Dew Point: 24°   Wind: 8mph
Humidity: 79%   Direction: 320°NW
Pressure: 30.15"   Gusts: NA
Location:  40.988°N, 83.2626°W
Report Text: KFDY 271253Z AUTO 32007KT 8SM OVC050 M01/M04 A3015 RMK AO2 SLP215 T10111044
Loading
Personal Weather Stations






























Interactive Weather Map New forecast layout! Learn more

10-Day Weather Forecast

Advertisements
Track Severe Weather on mobile